Data for 05/01/2010

Time Sea-Level Adjusted Pressure Absolute Pressure Temperature Relative Humidity Dew Point   
(mb) (inHg) (mb) (inHg) (C) (F) (%) (C) (F)
00:05 1010 29.83 839 24.78 0.9 33.6 80 -2.2 28
00:10 1010 29.83 839 24.78 0.9 33.6 80 -2.1 28.2
00:15 1010 29.83 839 24.78 1.1 34 79 -2.1 28.2
00:20 1010 29.83 839 24.78 1.3 34.3 80 -1.9 28.6
00:25 1010 29.83 839 24.78 1.5 34.6 79 -1.8 28.8
00:30 1010 29.83 839 24.78 1.7 35 78 -1.7 28.9
00:35 1010 29.83 839 24.78 1.8 35.2 78 -1.7 29
00:40 1010 29.83 839 24.78 1.8 35.3 78 -1.6 29.2
00:45 1010 29.83 839 24.78 1.9 35.3 78 -1.6 29.2
00:50 1010 29.83 839 24.78 1.9 35.4 78 -1.5 29.2
00:55 1010 29.83 839 24.78 1.9 35.5 77 -1.7 29
01:00 1010 29.83 839 24.78 2 35.7 77 -1.6 29.1
01:05 1010 29.83 839 24.78 2 35.5 78 -1.5 29.3
01:10 1010 29.83 839 24.78 1.7 35.1 78 -1.6 29
01:15 1010 29.83 839 24.78 1.8 35.2 77 -1.8 28.8
01:20 1010 29.83 839 24.78 1.8 35.2 79 -1.5 29.2
01:25 1010 29.83 839 24.78 1.7 35 82 -1.1 30
01:30 1010 29.83 839 24.78 1.6 34.9 82 -1 30.1
01:35 1010 29.83 839 24.78 1.7 35 83 -0.9 30.4
01:40 1010 29.83 839 24.78 1.7 35.1 84 -0.8 30.6
01:45 1010 29.83 839 24.78 1.8 35.2 84 -0.7 30.7
01:50 1010 29.83 839 24.78 1.7 35.1 84 -0.7 30.8
01:55 1010 29.83 839 24.78 1.7 35.1 84 -0.7 30.8
02:00 1010 29.83 839 24.78 1.4 34.6 88 -0.3 31.4
02:05 1010 29.83 839 24.78 1 33.7 91 -0.4 31.4
02:10 1010 29.83 839 24.78 0.6 33.2 93 -0.4 31.3
02:15 1010 29.83 839 24.78 0.6 33.2 93 -0.3 31.4
02:20 1010 29.83 839 24.78 0.6 33.1 94 -0.3 31.5
02:25 1010 29.83 839 24.78 0.6 33.1 94 -0.3 31.5
02:30 1010 29.83 839 24.78 0.6 33.1 94 -0.3 31.4
02:35 1010 29.83 839 24.78 0.5 32.8 95 -0.3 31.4
02:40 1010 29.83 839 24.78 0.5 32.8 95 -0.2 31.6
02:45 1010 29.83 839 24.78 0.6 33 95 -0.2 31.7
02:50 1010 29.83 839 24.78 0.5 33 95 -0.2 31.7
02:55 1010 29.83 839 24.78 0.6 33 95 -0.1 31.8
03:00 1010 29.83 839 24.78 0.6 33.1 95 -0.1 31.8
03:05 1010 29.83 839 24.78 0.6 33 95 -0.2 31.7
03:10 1010 29.83 839 24.78 0.5 32.9 95 -0.2 31.7
03:15 1010 29.83 839 24.78 0.6 33 95 -0.2 31.7
03:20 1010 29.83 839 24.78 0.6 33 95 -0.2 31.6
03:25 1010 29.83 839 24.78 0.5 33 94 -0.3 31.5
03:30 1010 29.83 839 24.78 0.5 33 94 -0.3 31.5
03:35 1010 29.83 839 24.78 0.5 32.9 95 -0.3 31.5
03:40 1010 29.83 839 24.78 0.5 33 95 -0.2 31.6
03:45 1010 29.83 839 24.78 0.5 33 95 -0.3 31.5
03:50 1010 29.83 839 24.78 0.5 32.8 95 -0.3 31.5
03:55 1010 29.83 839 24.78 0.4 32.7 95 -0.3 31.5
04:00 1010 29.83 839 24.78 0.4 32.6 95 -0.4 31.3
04:05 1010 29.83 839 24.78 0.3 32.5 95 -0.4 31.3
04:10 1010 29.83 839 24.78 0.2 32.4 95 -0.4 31.2
04:15 1010 29.83 839 24.78 0.3 32.6 95 -0.4 31.4
04:20 1010 29.83 839 24.78 0.4 32.8 95 -0.3 31.4
04:25 1010 29.83 839 24.78 0.4 32.6 96 -0.3 31.5
04:30 1010 29.83 839 24.78 0.3 32.6 96 -0.3 31.5
04:35 1010 29.83 839 24.78 0.2 32.4 96 -0.3 31.4
04:40 1010 29.83 839 24.78 0.3 32.5 96 -0.4 31.3
04:45 1009 29.8 839 24.78 0.4 32.7 94 -0.5 31.1
04:50 1009 29.8 839 24.78 0.5 32.8 92 -0.6 30.8
04:55 1009 29.8 839 24.78 0.5 32.9 92 -0.7 30.7
05:00 1009 29.8 839 24.78 0.5 33 91 -0.8 30.6
05:05 1009 29.8 839 24.78 0.6 33.1 91 -0.7 30.7
05:10 1009 29.8 839 24.78 0.6 33.1 90 -0.8 30.5
05:15 1009 29.8 838 24.75 0.7 33.3 88 -1 30.2
05:20 1009 29.8 838 24.75 0.9 33.6 85 -1.3 29.6
05:25 1009 29.8 838 24.75 1 33.9 85 -1.2 29.9
05:30 1009 29.8 838 24.75 1.2 34.1 82 -1.7 29
05:35 1009 29.8 838 24.75 1.4 34.6 79 -1.8 28.8
05:40 1009 29.8 838 24.75 1.5 34.7 79 -1.7 29
05:45 1009 29.8 838 24.75 1.5 34.8 79 -1.7 29
05:50 1009 29.8 838 24.75 1.7 35 79 -1.6 29.1
05:55 1009 29.8 838 24.75 1.8 35.2 80 -1.3 29.6
06:00 1009 29.8 838 24.75 1.4 34.5 89 -0.3 31.5
06:05 1009 29.8 838 24.75 0.8 33.4 91 -0.5 31.1
06:10 1009 29.8 838 24.75 0.8 33.4 83 -1.7 28.9
06:15 1009 29.8 838 24.75 1.4 34.6 83 -1.1 30
06:20 1009 29.8 838 24.75 1.3 34.3 89 -0.4 31.3
06:25 1009 29.8 838 24.75 0.9 33.6 91 -0.5 31.1
06:30 1009 29.8 838 24.75 0.7 33.2 92 -0.5 31.1
06:35 1009 29.8 838 24.75 0.7 33.3 88 -1 30.2
06:40 1009 29.8 838 24.75 1 33.9 85 -1.2 29.8
06:45 1009 29.8 838 24.75 1.3 34.3 82 -1.5 29.4
06:50 1009 29.8 838 24.75 1.5 34.7 79 -1.7 28.9
06:55 1009 29.8 838 24.75 1.7 35.1 79 -1.6 29.2
07:00 1009 29.8 838 24.75 1.9 35.4 78 -1.6 29.1
07:05 1009 29.8 838 24.75 1.9 35.4 86 -0.3 31.5
07:10 1009 29.8 838 24.75 1.2 34.2 88 -0.5 31.2
07:15 1009 29.8 838 24.75 1.3 34.3 87 -0.7 30.8
07:20 1009 29.8 838 24.75 1.4 34.4 86 -0.7 30.7
07:25 1009 29.8 838 24.75 1.6 34.8 86 -0.5 31
07:30 1009 29.8 838 24.75 1.8 35.3 85 -0.5 31.1
07:35 1009 29.8 838 24.75 2.1 35.7 83 -0.6 31
07:40 1009 29.8 838 24.75 2.3 36.1 81 -0.6 30.9
07:45 1009 29.8 838 24.75 2.5 36.6 80 -0.6 31
07:50 1008 29.77 838 24.75 2.6 36.7 79 -0.7 30.8
07:55 1008 29.77 838 24.75 2.7 36.8 79 -0.5 31.1
08:00 1008 29.77 838 24.75 2.6 36.8 77 -1 30.3
08:05 1008 29.77 838 24.75 2.7 36.9 76 -1.1 30.1
08:10 1009 29.8 838 24.75 2.8 37 76 -1 30.1
08:15 1008 29.77 838 24.75 2.8 37.1 75 -1.2 29.8
08:20 1008 29.77 838 24.75 2.9 37.2 75 -1.1 30.1
08:25 1008 29.77 838 24.75 3 37.5 75 -1 30.2
08:30 1008 29.77 838 24.75 3.2 37.7 74 -1 30.3
08:35 1008 29.77 838 24.75 3.4 38.2 73 -1 30.3
08:40 1008 29.77 838 24.75 3.5 38.3 73 -0.9 30.4
08:45 1008 29.77 838 24.75 3.6 38.6 73 -0.7 30.8
08:50 1008 29.77 838 24.75 3.8 38.9 74 -0.4 31.2
08:55 1008 29.77 838 24.75 4.2 39.6 71 -0.5 31
09:00 1008 29.77 838 24.75 4.6 40.2 69 -0.6 30.9
09:05 1008 29.77 838 24.75 4.7 40.4 62 -2 28.3
09:10 1008 29.77 837 24.72 4.7 40.5 60 -2.3 27.8
09:15 1008 29.77 837 24.72 4.7 40.5 61 -2.2 28.1
09:20 1008 29.77 837 24.72 4.6 40.4 60 -2.4 27.7
09:25 1008 29.77 838 24.75 4.5 40.2 61 -2.4 27.8
09:30 1008 29.77 838 24.75 4.7 40.4 63 -1.9 28.7
09:35 1008 29.77 838 24.75 4.9 40.8 64 -1.4 29.5
09:40 1008 29.77 837 24.72 5 40.9 63 -1.5 29.4
09:45 1008 29.77 837 24.72 5.1 41.1 63 -1.3 29.6
09:50 1008 29.77 837 24.72 5.3 41.6 63 -1.1 30.1
09:55 1008 29.77 837 24.72 5.3 41.6 61 -1.5 29.3
10:00 1008 29.77 837 24.72 5.7 42.2 60 -1.5 29.3
10:05 1008 29.77 837 24.72 6.3 43.4 59 -1.1 30
10:10 1008 29.77 837 24.72 6.7 44.1 54 -2 28.4
10:15 1008 29.77 837 24.72 5.8 42.4 55 -2.6 27.4
10:20 1008 29.77 837 24.72 5.7 42.3 55 -2.7 27.2
10:25 1008 29.77 837 24.72 5.7 42.2 55 -2.7 27.2
10:30 1008 29.77 837 24.72 5.4 41.7 54 -3.3 26.1
10:35 1008 29.77 837 24.72 5.4 41.7 53 -3.4 25.9
10:40 1008 29.77 837 24.72 5.9 42.5 54 -2.8 26.9
10:45 1008 29.77 837 24.72 6.3 43.4 52 -2.8 26.9
10:50 1008 29.77 837 24.72 6.3 43.3 50 -3.3 26
10:55 1008 29.77 837 24.72 6.2 43.1 50 -3.4 25.9
11:00 1008 29.77 837 24.72 6.6 43.9 48 -3.5 25.6
11:05 1008 29.77 837 24.72 6.6 43.9 49 -3.2 26.2
11:10 1007 29.74 837 24.72 6.7 44 50 -3 26.6
11:15 1007 29.74 837 24.72 7.4 45.3 49 -2.6 27.4
11:20 1007 29.74 836 24.69 7.2 44.9 50 -2.4 27.6
11:25 1007 29.74 836 24.69 7.1 44.8 44 -4.4 24.1
11:30 1007 29.74 836 24.69 7.8 46 47 -2.8 27
11:35 1007 29.74 836 24.69 7.3 45.1 51 -2.2 28
11:40 1007 29.74 836 24.69 6.2 43.1 61 -0.8 30.6
11:45 1007 29.74 837 24.72 5.2 41.3 69 -0.1 31.8
11:50 1007 29.74 836 24.69 3.9 39.1 71 -0.8 30.6
11:55 1007 29.74 837 24.72 3.7 38.6 75 -0.4 31.4
12:00 1007 29.74 836 24.69 3.9 39.1 72 -0.7 30.7
12:05 1007 29.74 836 24.69 4.3 39.7 68 -1.1 30
12:10 1007 29.74 836 24.69 4.7 40.5 67 -0.9 30.4
12:15 1007 29.74 836 24.69 4.6 40.2 68 -0.8 30.5
12:20 1007 29.74 836 24.69 4.8 40.6 65 -1.2 29.9
12:25 1007 29.74 836 24.69 5.3 41.6 63 -1.1 30
12:30 1007 29.74 836 24.69 5.7 42.2 58 -1.8 28.7
12:35 1007 29.74 836 24.69 5.8 42.5 59 -1.6 29.1
12:40 1007 29.74 836 24.69 5.8 42.4 58 -1.8 28.8
12:45 1007 29.74 836 24.69 5.7 42.3 59 -1.7 28.9
12:50 1007 29.74 836 24.69 6.1 43 58 -1.6 29.2
12:55 1007 29.74 836 24.69 5.8 42.4 61 -1.1 30.1
13:00 1007 29.74 836 24.69 5.5 41.9 60 -1.6 29.1
13:05 1007 29.74 836 24.69 6 42.8 56 -2.2 28.1
13:10 1007 29.74 836 24.69 6.6 43.8 55 -1.8 28.8
13:15 1007 29.74 836 24.69 6.8 44.3 53 -2 28.4
13:20 1006 29.71 836 24.69 5.7 42.2 63 -0.8 30.5
13:25 1006 29.71 836 24.69 5.1 41.2 58 -2.4 27.6
13:30 1006 29.71 836 24.69 5 41.1 61 -2 28.5
13:35 1006 29.71 836 24.69 5 40.9 61 -1.8 28.8
13:40 1006 29.71 836 24.69 5 41 65 -1 30.1
13:45 1006 29.71 836 24.69 3.9 39.1 75 -0 31.9
13:50 1006 29.71 835 24.66 2.9 37.3 77 -0.7 30.7
13:55 1006 29.71 835 24.66 3.5 38.3 69 -1.6 29.1
14:00 1006 29.71 835 24.66 4.5 40.1 61 -2.3 27.8
14:05 1006 29.71 835 24.66 5.3 41.6 67 -0.3 31.4
14:10 1006 29.71 835 24.66 5.3 41.6 64 -0.9 30.4
14:15 1006 29.71 835 24.66 4.8 40.6 65 -1.2 29.9
14:20 1006 29.71 835 24.66 4.8 40.6 65 -1.3 29.7
14:25 1006 29.71 835 24.66 4.9 40.8 62 -1.8 28.7
14:30 1006 29.71 835 24.66 5 41 57 -2.9 26.8
14:35 1006 29.71 835 24.66 5.3 41.6 55 -3 26.7
14:40 1005 29.68 835 24.66 5.4 41.8 59 -1.9 28.6
14:45 1005 29.68 835 24.66 5.6 42 58 -2.1 28.2
14:50 1005 29.68 835 24.66 5.5 41.8 59 -2 28.4
14:55 1005 29.68 834 24.63 5.7 42.2 55 -2.7 27.1
15:00 1005 29.68 834 24.63 6 42.8 53 -2.8 27
15:05 1005 29.68 834 24.63 6.8 44.3 51 -2.7 27.2
15:10 1005 29.68 834 24.63 7 44.5 47 -3.5 25.6
15:15 1005 29.68 834 24.63 7 44.6 52 -2.1 28.3
15:20 1005 29.68 835 24.66 6.8 44.3 56 -1.2 29.8
15:25 1005 29.68 835 24.66 5.9 42.6 57 -1.9 28.6
15:30 1005 29.68 835 24.66 5.6 42.1 59 -1.7 28.9
15:35 1005 29.68 835 24.66 5.8 42.4 57 -2.1 28.2
15:40 1005 29.68 835 24.66 6.5 43.6 53 -2.3 27.9
15:45 1006 29.71 835 24.66 6.7 44.1 56 -1.5 29.4
15:50 1005 29.68 835 24.66 5.8 42.4 60 -1.3 29.7
15:55 1006 29.71 835 24.66 5.2 41.4 63 -1.2 29.9
16:00 1006 29.71 835 24.66 4.5 40.2 69 -0.6 30.9
16:05 1006 29.71 835 24.66 3.7 38.7 75 -0.3 31.5
16:10 1006 29.71 835 24.66 2.6 36.7 83 -0 32
16:15 1006 29.71 835 24.66 1.6 35 86 -0.5 31.2
16:20 1006 29.71 835 24.66 1.8 35.2 84 -0.6 30.9
16:25 1006 29.71 835 24.66 2.3 36.1 80 -0.8 30.6
16:30 1006 29.71 835 24.66 3 37.3 75 -1 30.3
16:35 1006 29.71 835 24.66 3.3 37.9 71 -1.4 29.5
16:40 1006 29.71 835 24.66 3.5 38.3 72 -1 30.2
16:45 1006 29.71 835 24.66 3.8 38.8 72 -0.9 30.4
16:50 1006 29.71 835 24.66 4 39.2 72 -0.7 30.8
16:55 1005 29.68 835 24.66 4.1 39.4 69 -1 30.2
17:00 1005 29.68 835 24.66 4.4 40 67 -1.3 29.7
17:05 1005 29.68 835 24.66 4.6 40.4 67 -1 30.1
17:10 1005 29.68 834 24.63 4.8 40.7 67 -0.8 30.6
17:15 1005 29.68 835 24.66 5 41 64 -1.2 29.8
17:20 1005 29.68 835 24.66 5.2 41.4 64 -1 30.1
17:25 1005 29.68 834 24.63 5.1 41.2 66 -0.7 30.8
17:30 1005 29.68 834 24.63 5.1 41.1 65 -1 30.2
17:35 1005 29.68 835 24.66 5.6 42 62 -1 30.1
17:40 1005 29.68 834 24.63 6.1 42.9 57 -1.8 28.8
17:45 1005 29.68 835 24.66 6.7 44 49 -3.4 25.9
17:50 1005 29.68 835 24.66 7 44.6 48 -3.2 26.3
17:55 1005 29.68 835 24.66 7.1 44.7 49 -2.8 27
18:00 1005 29.68 835 24.66 6.9 44.4 59 -0.6 30.9
18:05 1005 29.68 835 24.66 5.9 42.6 58 -1.6 29.1
18:10 1005 29.68 835 24.66 5.7 42.3 57 -2 28.4
18:15 1005 29.68 835 24.66 5.7 42.2 58 -1.8 28.7
18:20 1005 29.68 835 24.66 5.6 42 65 -0.5 31.1
18:25 1005 29.68 835 24.66 5.8 42.4 64 -0.5 31.2
18:30 1006 29.71 835 24.66 6.1 43 63 -0.3 31.4
18:35 1006 29.71 835 24.66 6.6 43.9 59 -0.7 30.7
18:40 1006 29.71 835 24.66 6.4 43.5 59 -1 30.1
18:45 1006 29.71 835 24.66 5.8 42.5 63 -0.7 30.7
18:50 1006 29.71 835 24.66 5.8 42.4 61 -1.2 29.9
18:55 1006 29.71 835 24.66 5.6 42.1 63 -0.9 30.5
19:00 1006 29.71 835 24.66 5.4 41.6 61 -1.6 29.2
19:05 1006 29.71 835 24.66 5.2 41.4 62 -1.4 29.6
19:10 1006 29.71 835 24.66 5.2 41.3 61 -1.7 28.9
19:15 1006 29.71 835 24.66 5.1 41.1 60 -2.1 28.2
19:20 1006 29.71 835 24.66 5.2 41.4 58 -2.4 27.7
19:25 1006 29.71 835 24.66 5.3 41.5 60 -1.9 28.7
19:30 1006 29.71 835 24.66 4.8 40.6 64 -1.5 29.2
19:35 1006 29.71 835 24.66 4.3 39.7 64 -2 28.4
19:40 1006 29.71 835 24.66 4.2 39.5 64 -2 28.5
19:45 1006 29.71 835 24.66 4.1 39.4 65 -1.9 28.6
19:50 1006 29.71 835 24.66 4.2 39.5 65 -1.9 28.5
19:55 1006 29.71 835 24.66 4.4 39.9 65 -1.7 29
20:00 1006 29.71 835 24.66 4.5 40.1 64 -1.6 29.1
20:05 1006 29.71 835 24.66 4.5 40.1 64 -1.6 29.1
20:10 1006 29.71 835 24.66 4.3 39.8 65 -1.7 28.9
20:15 1006 29.71 836 24.69 4.1 39.4 64 -2 28.3
20:20 1006 29.71 836 24.69 3.9 39.1 65 -2.1 28.2
20:25 1006 29.71 836 24.69 4 39.2 64 -2.3 27.9
20:30 1007 29.74 836 24.69 3.9 39.1 65 -2.1 28.2
20:35 1007 29.74 836 24.69 3.8 38.9 67 -1.8 28.7
20:40 1007 29.74 836 24.69 3.7 38.7 67 -1.8 28.8
20:45 1007 29.74 836 24.69 3.5 38.4 68 -1.8 28.7
20:50 1007 29.74 836 24.69 3.3 37.9 67 -2.3 27.9
20:55 1007 29.74 836 24.69 3.4 38.1 65 -2.6 27.3
21:00 1007 29.74 836 24.69 3.4 38.2 64 -2.8 27
21:05 1007 29.74 836 24.69 3.5 38.4 64 -2.7 27.1
21:10 1007 29.74 836 24.69 3.5 38.4 66 -2.2 28.1
21:15 1007 29.74 836 24.69 3.4 38.1 66 -2.4 27.6
21:20 1007 29.74 836 24.69 3.4 38.1 65 -2.5 27.5
21:25 1007 29.74 836 24.69 3.6 38.4 63 -2.8 27
21:30 1007 29.74 836 24.69 3.7 38.7 63 -2.6 27.2
21:35 1007 29.74 836 24.69 3.6 38.5 63 -2.8 26.9
21:40 1007 29.74 836 24.69 3.5 38.3 64 -2.6 27.4
21:45 1007 29.74 837 24.72 3.4 38.1 65 -2.6 27.3
21:50 1007 29.74 837 24.72 3.3 38 63 -3.1 26.5
21:55 1007 29.74 837 24.72 3.4 38 62 -3.2 26.3
22:00 1008 29.77 837 24.72 3.4 38 61 -3.4 25.8
22:05 1008 29.77 837 24.72 3.4 38.1 60 -3.5 25.6
22:10 1008 29.77 837 24.72 3.5 38.4 60 -3.5 25.8
22:15 1008 29.77 837 24.72 3.5 38.4 60 -3.6 25.5
22:20 1008 29.77 837 24.72 3.5 38.3 60 -3.5 25.7
22:25 1008 29.77 837 24.72 3.4 38.2 59 -3.9 25
22:30 1008 29.77 837 24.72 3.3 38 59 -4 24.8
22:35 1008 29.77 837 24.72 3.2 37.7 59 -4.1 24.7
22:40 1008 29.77 837 24.72 3.1 37.5 60 -4 24.8
22:45 1008 29.77 837 24.72 2.9 37.3 59 -4.4 24.1
22:50 1008 29.77 837 24.72 2.9 37.1 60 -4.2 24.5
22:55 1008 29.77 837 24.72 2.8 37.1 60 -4.2 24.4
23:00 1008 29.77 837 24.72 2.7 36.9 59 -4.5 23.9
23:05 1008 29.77 837 24.72 2.8 37 59 -4.5 23.9
23:10 1008 29.77 837 24.72 2.7 36.8 59 -4.5 23.9
23:15 1008 29.77 837 24.72 2.6 36.7 60 -4.4 24.2
23:20 1008 29.77 837 24.72 2.5 36.6 59 -4.6 23.7
23:25 1008 29.77 837 24.72 2.5 36.5 59 -4.6 23.7
23:30 1008 29.77 837 24.72 2.4 36.3 60 -4.6 23.7
23:35 1008 29.77 837 24.72 2.3 36.2 60 -4.7 23.6
23:40 1008 29.77 837 24.72 2.2 36 61 -4.5 23.9
23:45 1008 29.77 837 24.72 2.1 35.8 62 -4.5 23.9
23:50 1008 29.77 838 24.75 2.1 35.8 62 -4.3 24.2
23:55 1008 29.77 838 24.75 2.1 35.7 63 -4.2 24.4
24:00 1008 29.77 838 24.75 2 35.7 63 -4.2 24.4